createdAt,value
2023-04-10T00:01:52.876Z,81.79
2023-04-10T00:04:19.478Z,82.33
2023-04-10T00:06:46.257Z,82.60
2023-04-10T00:09:12.647Z,82.55
2023-04-10T00:11:39.011Z,82.85
2023-04-10T00:14:05.386Z,83.91
2023-04-10T00:16:31.869Z,84.53
2023-04-10T00:18:58.320Z,84.37
2023-04-10T00:21:24.698Z,84.47
2023-04-10T00:23:51.271Z,84.42
2023-04-10T00:26:18.639Z,84.12
2023-04-10T00:28:45.196Z,84.14
2023-04-10T00:31:11.552Z,83.01
2023-04-10T00:33:37.928Z,83.04
2023-04-10T00:36:04.557Z,82.77
2023-04-10T00:38:31.027Z,82.94
2023-04-10T00:40:57.443Z,83.71
2023-04-10T00:43:24.298Z,82.97
2023-04-10T00:45:50.945Z,83.43
2023-04-10T00:48:17.446Z,83.56
2023-04-10T00:50:43.893Z,83.19
2023-04-10T00:53:10.286Z,83.09
2023-04-10T00:55:36.897Z,82.79
2023-04-10T00:58:03.529Z,83.80
2023-04-10T01:00:30.154Z,84.19
2023-04-10T01:02:56.913Z,84.70
2023-04-10T01:05:23.932Z,84.74
2023-04-10T01:08:18.520Z,84.74
2023-04-10T01:10:52.576Z,85.58
2023-04-10T01:13:27.984Z,85.67
2023-04-10T01:16:23.652Z,85.80
2023-04-10T01:19:27.053Z,85.80
2023-04-10T01:21:54.916Z,85.64
2023-04-10T01:24:35.916Z,86.03
2023-04-10T01:27:27.047Z,85.67
2023-04-10T01:29:56.579Z,85.82
2023-04-10T01:32:24.019Z,85.62
2023-04-10T01:34:51.991Z,85.66
2023-04-10T01:37:23.582Z,86.45
2023-04-10T01:39:59.683Z,87.13
2023-04-10T01:42:28.490Z,87.75
2023-04-10T01:44:55.758Z,88.20
2023-04-10T01:47:22.462Z,88.53
2023-04-10T01:49:49.032Z,89.47
2023-04-10T01:52:15.768Z,91.09
2023-04-10T01:54:43.328Z,92.24
2023-04-10T01:57:10.894Z,92.85
2023-04-10T01:59:38.661Z,92.53
2023-04-10T02:02:07.584Z,95.31
2023-04-10T02:04:34.339Z,96.99
2023-04-10T02:07:09.244Z,98.82
2023-04-10T02:09:55.762Z,100.00
2023-04-10T02:12:28.771Z,100.00
2023-04-10T02:14:56.146Z,100.00
2023-04-10T02:17:27.745Z,100.00
2023-04-10T02:19:55.862Z,100.00
2023-04-10T02:22:23.253Z,100.00
2023-04-10T02:24:50.074Z,100.00
2023-04-10T02:27:16.507Z,100.00
2023-04-10T02:29:42.877Z,100.00
2023-04-10T02:32:09.434Z,100.00
2023-04-10T02:34:35.803Z,100.00
2023-04-10T02:37:02.197Z,100.00
2023-04-10T02:39:28.669Z,100.00
2023-04-10T02:41:55.054Z,100.00
2023-04-10T02:44:21.442Z,100.00
2023-04-10T02:46:47.986Z,100.00
2023-04-10T02:49:14.420Z,100.00
2023-04-10T02:51:40.862Z,100.00
2023-04-10T02:54:07.218Z,100.00
2023-04-10T02:56:34.830Z,100.00
2023-04-10T02:59:01.499Z,100.00
2023-04-10T03:01:27.930Z,100.00
2023-04-10T03:03:54.746Z,100.00
2023-04-10T03:06:23.519Z,100.00
2023-04-10T03:08:49.890Z,100.00
2023-04-10T03:11:16.292Z,100.00
2023-04-10T03:13:42.682Z,100.00
2023-04-10T03:16:09.075Z,100.00
2023-04-10T03:18:35.586Z,100.00
2023-04-10T03:21:04.871Z,100.00
2023-04-10T03:23:31.303Z,100.00
2023-04-10T03:25:57.965Z,100.00
2023-04-10T03:28:24.367Z,100.00
2023-04-10T03:30:51.054Z,100.00
2023-04-10T03:33:17.467Z,100.00
2023-04-10T03:35:46.227Z,100.00
2023-04-10T03:38:12.610Z,100.00
2023-04-10T03:40:39.037Z,100.00
2023-04-10T03:43:05.680Z,100.00
2023-04-10T03:45:32.089Z,100.00
2023-04-10T03:47:59.027Z,100.00
2023-04-10T03:50:25.482Z,100.00
2023-04-10T03:52:52.047Z,100.00
2023-04-10T03:55:21.327Z,100.00
2023-04-10T03:57:48.923Z,100.00
2023-04-10T04:00:16.612Z,100.00
2023-04-10T04:02:43.202Z,100.00
2023-04-10T04:05:09.935Z,100.00
2023-04-10T04:07:36.410Z,100.00
2023-04-10T04:10:02.963Z,100.00
2023-04-10T04:12:29.348Z,100.00
2023-04-10T04:14:55.722Z,100.00
2023-04-10T04:17:22.141Z,100.00
2023-04-10T04:19:48.582Z,100.00
2023-04-10T04:22:15.229Z,100.00
2023-04-10T04:24:41.624Z,100.00
2023-04-10T04:27:07.996Z,100.00
2023-04-10T04:29:34.375Z,100.00
2023-04-10T04:32:00.782Z,100.00
2023-04-10T04:34:27.164Z,100.00
2023-04-10T04:36:53.607Z,100.00
2023-04-10T04:39:21.024Z,100.00
2023-04-10T04:41:47.401Z,100.00
2023-04-10T04:44:13.808Z,100.00
2023-04-10T04:46:41.897Z,100.00
2023-04-10T04:49:10.659Z,100.00
2023-04-10T04:51:38.125Z,100.00
2023-04-10T04:54:04.809Z,100.00
2023-04-10T04:56:31.234Z,100.00
2023-04-10T04:58:57.590Z,100.00
2023-04-10T05:01:24.479Z,100.00
2023-04-10T05:03:50.914Z,100.00
2023-04-10T05:06:18.645Z,100.00
2023-04-10T05:08:45.279Z,100.00
2023-04-10T05:11:11.708Z,100.00
2023-04-10T05:13:38.105Z,100.00
2023-04-10T05:16:04.722Z,100.00
2023-04-10T05:18:31.286Z,100.00
2023-04-10T05:20:57.697Z,100.00
2023-04-10T05:23:24.070Z,100.00
2023-04-10T05:25:50.614Z,100.00
2023-04-10T05:28:17.001Z,100.00
2023-04-10T05:30:43.446Z,100.00
2023-04-10T05:33:09.833Z,100.00
2023-04-10T05:35:36.219Z,100.00
2023-04-10T05:38:02.621Z,100.00
2023-04-10T05:40:29.249Z,100.00
2023-04-10T05:42:55.634Z,100.00
2023-04-10T05:45:21.998Z,100.00
2023-04-10T05:47:48.460Z,100.00
2023-04-10T05:50:15.204Z,100.00
2023-04-10T05:52:41.586Z,100.00
2023-04-10T05:55:08.500Z,100.00
2023-04-10T05:57:34.886Z,100.00
2023-04-10T06:00:01.414Z,100.00
2023-04-10T06:02:28.019Z,100.00
2023-04-10T06:04:54.840Z,100.00
2023-04-10T06:07:21.373Z,100.00
2023-04-10T06:09:47.747Z,100.00
2023-04-10T06:12:14.118Z,100.00
2023-04-10T06:14:40.560Z,100.00
2023-04-10T06:17:07.082Z,100.00
2023-04-10T06:19:33.454Z,100.00
2023-04-10T06:21:59.813Z,100.00
2023-04-10T06:24:26.248Z,100.00
2023-04-10T06:26:52.628Z,100.00
2023-04-10T06:29:18.992Z,100.00
2023-04-10T06:31:45.631Z,100.00
2023-04-10T06:34:12.081Z,100.00
2023-04-10T06:36:38.568Z,100.00
2023-04-10T06:39:05.037Z,100.00
2023-04-10T06:41:31.502Z,100.00
2023-04-10T06:43:57.866Z,99.65
2023-04-10T06:46:24.286Z,98.14
2023-04-10T06:48:50.847Z,98.14
2023-04-10T06:51:17.242Z,97.73
2023-04-10T06:53:43.647Z,97.62
2023-04-10T06:56:10.581Z,96.63
2023-04-10T06:58:37.109Z,93.50
2023-04-10T07:01:04.636Z,92.20
2023-04-10T07:03:32.566Z,90.56
2023-04-10T07:05:59.793Z,89.68
2023-04-10T07:08:26.149Z,87.70
2023-04-10T07:10:52.534Z,86.76
2023-04-10T07:13:18.925Z,85.25
2023-04-10T07:15:45.290Z,82.77
2023-04-10T07:18:11.743Z,80.97
2023-04-10T07:20:38.170Z,79.81
2023-04-10T07:23:04.552Z,78.53
2023-04-10T07:25:30.924Z,78.25
2023-04-10T07:27:57.386Z,78.12
2023-04-10T07:30:23.779Z,77.81
2023-04-10T07:32:50.335Z,75.99
2023-04-10T07:35:16.927Z,74.81
2023-04-10T07:37:44.160Z,74.09
2023-04-10T07:40:10.805Z,71.86
2023-04-10T07:42:37.224Z,69.21
2023-04-10T07:45:03.749Z,68.15
2023-04-10T07:47:30.310Z,67.64
2023-04-10T07:49:56.723Z,65.41
2023-04-10T07:52:23.139Z,64.42
2023-04-10T07:54:49.506Z,63.28
2023-04-10T07:57:16.227Z,62.32
2023-04-10T07:59:42.594Z,60.62
2023-04-10T08:02:09.167Z,60.28
2023-04-10T08:04:36.136Z,60.56
2023-04-10T08:07:02.806Z,60.06
2023-04-10T08:09:29.217Z,58.74
2023-04-10T08:11:56.612Z,58.74
2023-04-10T08:14:22.994Z,57.44
2023-04-10T08:16:49.451Z,55.46
2023-04-10T08:19:15.906Z,54.29
2023-04-10T08:21:42.362Z,53.30
2023-04-10T08:24:08.814Z,52.76
2023-04-10T08:26:35.309Z,53.32
2023-04-10T08:29:01.993Z,51.63
2023-04-10T08:31:29.386Z,50.93
2023-04-10T08:33:57.013Z,50.53
2023-04-10T08:36:23.792Z,50.10
2023-04-10T08:38:50.286Z,49.45
2023-04-10T08:41:18.207Z,49.34
2023-04-10T08:43:46.035Z,49.35
2023-04-10T08:46:14.316Z,49.62
2023-04-10T08:49:02.754Z,48.96
2023-04-10T08:51:32.863Z,48.78
2023-04-10T08:54:06.296Z,47.70
2023-04-10T08:56:33.254Z,47.44
2023-04-10T08:59:02.195Z,46.24
2023-04-10T09:01:28.899Z,46.15
2023-04-10T09:03:55.448Z,45.94
2023-04-10T09:06:22.195Z,45.40
2023-04-10T09:08:48.583Z,45.27
2023-04-10T09:11:14.974Z,44.73
2023-04-10T09:13:43.845Z,44.94
2023-04-10T09:16:11.183Z,44.51
2023-04-10T09:18:42.419Z,44.24
2023-04-10T09:21:18.354Z,44.36
2023-04-10T09:23:45.667Z,43.92
2023-04-10T09:26:28.315Z,43.38
2023-04-10T09:29:03.183Z,43.63
2023-04-10T09:31:32.700Z,42.81
2023-04-10T09:34:09.006Z,42.70
2023-04-10T09:36:36.776Z,42.79
2023-04-10T09:39:04.346Z,42.13
2023-04-10T09:41:30.849Z,42.21
2023-04-10T09:44:07.723Z,42.05
2023-04-10T09:46:35.058Z,41.74
2023-04-10T09:49:04.546Z,41.16
2023-04-10T09:51:35.575Z,41.67
2023-04-10T09:54:02.819Z,40.86
2023-04-10T09:56:30.412Z,40.72
2023-04-10T09:58:58.536Z,41.00
2023-04-10T10:01:29.934Z,41.09
2023-04-10T10:03:58.268Z,40.67
2023-04-10T10:06:25.986Z,40.53
2023-04-10T10:08:52.878Z,40.21
2023-04-10T10:11:22.648Z,40.23
2023-04-10T10:13:54.683Z,39.96
2023-04-10T10:16:21.841Z,40.57
2023-04-10T10:19:13.414Z,40.38
2023-04-10T10:21:40.324Z,40.16
2023-04-10T10:24:10.506Z,40.10
2023-04-10T10:26:39.365Z,39.65
2023-04-10T10:29:10.718Z,39.17
2023-04-10T10:31:37.975Z,39.46
2023-04-10T10:34:06.915Z,38.89
2023-04-10T10:36:34.090Z,39.11
2023-04-10T10:39:22.841Z,39.71
2023-04-10T10:41:55.956Z,39.02
2023-04-10T10:44:46.538Z,38.50
2023-04-10T10:47:18.697Z,38.45
2023-04-10T10:49:51.445Z,38.74
2023-04-10T10:52:36.952Z,38.18
2023-04-10T10:55:22.049Z,38.54
2023-04-10T10:57:50.252Z,38.42
2023-04-10T11:00:16.925Z,37.98
2023-04-10T11:02:43.702Z,37.84
2023-04-10T11:05:10.511Z,37.97
2023-04-10T11:07:58.748Z,37.80
2023-04-10T11:11:02.847Z,37.57
2023-04-10T11:13:29.393Z,37.93
2023-04-10T11:15:57.332Z,38.17
2023-04-10T11:18:45.579Z,37.56
2023-04-10T11:21:22.549Z,37.58
2023-04-10T11:23:52.732Z,37.49
2023-04-10T11:26:38.154Z,37.14
2023-04-10T11:29:19.878Z,36.53
2023-04-10T11:31:46.895Z,36.15
2023-04-10T11:34:15.503Z,36.08
2023-04-10T11:36:43.585Z,35.91
2023-04-10T11:39:13.214Z,36.06
2023-04-10T11:41:47.504Z,35.73
2023-04-10T11:44:16.786Z,36.13
2023-04-10T11:46:47.446Z,35.18
2023-04-10T11:49:26.399Z,35.29
2023-04-10T11:51:53.186Z,34.55
2023-04-10T11:54:24.888Z,34.75
2023-04-10T11:57:02.589Z,34.80
2023-04-10T11:59:30.285Z,35.50
2023-04-10T12:02:11.011Z,34.61
2023-04-10T12:04:37.970Z,35.03
2023-04-10T12:07:04.521Z,34.01
2023-04-10T12:09:31.017Z,33.55
2023-04-10T12:12:03.502Z,34.02
2023-04-10T12:14:34.125Z,33.98
2023-04-10T12:17:01.624Z,34.30
2023-04-10T12:19:28.190Z,34.19
2023-04-10T12:21:55.957Z,34.31
2023-04-10T12:24:48.013Z,34.38
2023-04-10T12:27:26.409Z,33.58
2023-04-10T12:29:54.233Z,33.21
2023-04-10T12:32:21.146Z,33.08
2023-04-10T12:34:52.078Z,32.74
2023-04-10T12:37:19.339Z,33.10
2023-04-10T12:39:45.698Z,33.59
2023-04-10T12:42:19.515Z,32.56
2023-04-10T12:44:59.544Z,31.90
2023-04-10T12:47:27.422Z,31.79
2023-04-10T12:50:04.471Z,32.00
2023-04-10T12:52:31.182Z,31.95
2023-04-10T12:55:15.767Z,32.35
2023-04-10T12:57:43.721Z,32.90
2023-04-10T13:00:11.851Z,32.58
2023-04-10T13:02:39.538Z,32.56
2023-04-10T13:05:06.817Z,32.92
2023-04-10T13:07:33.510Z,32.36
2023-04-10T13:10:00.219Z,31.84
2023-04-10T13:12:27.192Z,31.03
2023-04-10T13:14:54.398Z,30.84
2023-04-10T13:17:21.721Z,30.17
2023-04-10T13:19:48.260Z,30.21
2023-04-10T13:22:14.644Z,30.61
2023-04-10T13:24:41.812Z,29.77
2023-04-10T13:27:09.526Z,29.38
2023-04-10T13:29:36.467Z,29.47
2023-04-10T13:32:05.329Z,29.68
2023-04-10T13:34:32.591Z,29.97
2023-04-10T13:36:59.418Z,30.78
2023-04-10T13:39:29.365Z,31.10
2023-04-10T13:41:56.714Z,31.62
2023-04-10T13:44:23.299Z,31.16
2023-04-10T13:46:49.687Z,31.48
2023-04-10T13:49:20.135Z,31.97
2023-04-10T13:51:46.848Z,33.08
2023-04-10T13:54:13.782Z,33.55
2023-04-10T13:56:41.138Z,33.46
2023-04-10T13:59:07.678Z,33.97
2023-04-10T14:01:34.112Z,33.89
2023-04-10T14:04:00.612Z,34.16
2023-04-10T14:06:27.273Z,33.63
2023-04-10T14:08:54.147Z,33.69
2023-04-10T14:11:21.531Z,34.19
2023-04-10T14:13:47.891Z,34.55
2023-04-10T14:16:14.615Z,34.51
2023-04-10T14:18:40.999Z,34.38
2023-04-10T14:21:07.482Z,34.34
2023-04-10T14:23:33.907Z,34.48
2023-04-10T14:26:00.401Z,35.09
2023-04-10T14:28:26.813Z,34.68
2023-04-10T14:30:53.216Z,35.32
2023-04-10T14:33:20.184Z,35.00
2023-04-10T14:35:47.357Z,35.13
2023-04-10T14:38:13.791Z,35.43
2023-04-10T14:40:43.614Z,35.05
2023-04-10T14:43:09.995Z,35.51
2023-04-10T14:45:36.387Z,35.12
2023-04-10T14:48:03.066Z,35.38
2023-04-10T14:50:31.675Z,36.03
2023-04-10T14:53:00.002Z,35.84
2023-04-10T14:55:28.950Z,36.22
2023-04-10T14:57:57.254Z,35.96
2023-04-10T15:00:25.230Z,36.72
2023-04-10T15:02:51.935Z,36.80
2023-04-10T15:05:18.754Z,36.41
2023-04-10T15:07:45.182Z,35.79
2023-04-10T15:10:11.629Z,35.99
2023-04-10T15:12:38.029Z,36.22
2023-04-10T15:15:04.927Z,35.83
2023-04-10T15:17:31.305Z,35.80
2023-04-10T15:19:57.790Z,35.99
2023-04-10T15:22:24.189Z,36.01
2023-04-10T15:24:51.196Z,36.02
2023-04-10T15:27:23.554Z,36.39
2023-04-10T15:29:49.952Z,36.92
2023-04-10T15:32:16.386Z,37.12
2023-04-10T15:34:44.251Z,37.08
2023-04-10T15:37:11.529Z,37.29
2023-04-10T15:39:37.924Z,37.60
2023-04-10T15:42:08.139Z,37.84
2023-04-10T15:44:34.686Z,37.95
2023-04-10T15:47:01.138Z,38.22
2023-04-10T15:49:37.155Z,38.12
2023-04-10T15:52:06.156Z,37.55
2023-04-10T15:54:35.748Z,38.58
2023-04-10T15:57:02.982Z,38.50
2023-04-10T15:59:29.600Z,39.14
2023-04-10T16:01:56.063Z,39.08
2023-04-10T16:04:22.935Z,38.96
2023-04-10T16:06:49.435Z,39.11
2023-04-10T16:09:25.494Z,39.78
2023-04-10T16:11:53.068Z,39.76
2023-04-10T16:14:19.513Z,39.93
2023-04-10T16:16:45.975Z,39.92
2023-04-10T16:19:12.366Z,40.20
2023-04-10T16:21:38.790Z,39.94
2023-04-10T16:24:05.596Z,39.98
2023-04-10T16:26:32.019Z,40.06
2023-04-10T16:28:58.412Z,39.91
2023-04-10T16:31:24.888Z,39.90
2023-04-10T16:33:51.296Z,39.85
2023-04-10T16:36:17.690Z,39.87
2023-04-10T16:38:44.498Z,39.86
2023-04-10T16:41:12.315Z,39.95
2023-04-10T16:43:38.748Z,39.74
2023-04-10T16:46:05.784Z,39.68
2023-04-10T16:48:33.697Z,39.78
2023-04-10T16:51:05.954Z,39.83
2023-04-10T16:53:33.419Z,40.87
2023-04-10T16:56:02.856Z,41.01
2023-04-10T16:58:30.803Z,41.34
2023-04-10T17:00:57.354Z,41.57
2023-04-10T17:03:23.810Z,41.72
2023-04-10T17:05:50.342Z,41.90
2023-04-10T17:08:16.728Z,41.83
2023-04-10T17:10:43.131Z,41.25
2023-04-10T17:13:09.505Z,41.20
2023-04-10T17:15:35.898Z,41.02
2023-04-10T17:18:02.426Z,41.25
2023-04-10T17:20:28.875Z,41.63
2023-04-10T17:22:55.266Z,41.60
2023-04-10T17:25:21.659Z,41.29
2023-04-10T17:27:48.032Z,41.72
2023-04-10T17:30:14.469Z,42.32
2023-04-10T17:32:41.724Z,42.89
2023-04-10T17:35:08.324Z,43.38
2023-04-10T17:37:34.761Z,44.34
2023-04-10T17:40:01.275Z,45.14
2023-04-10T17:42:27.705Z,46.18
2023-04-10T17:44:54.116Z,46.49
2023-04-10T17:47:20.837Z,46.72
2023-04-10T17:49:47.243Z,47.10
2023-04-10T17:52:13.608Z,47.99
2023-04-10T17:54:40.151Z,48.93
2023-04-10T17:57:06.554Z,49.94
2023-04-10T17:59:32.976Z,50.73
2023-04-10T18:01:59.422Z,51.75
2023-04-10T18:04:25.834Z,52.17
2023-04-10T18:06:52.239Z,52.43
2023-04-10T18:09:18.637Z,53.23
2023-04-10T18:11:45.111Z,54.74
2023-04-10T18:14:11.545Z,55.32
2023-04-10T18:16:38.060Z,56.29
2023-04-10T18:19:04.497Z,57.42
2023-04-10T18:21:31.442Z,58.84
2023-04-10T18:23:57.829Z,60.20
2023-04-10T18:26:24.401Z,61.68
2023-04-10T18:28:50.856Z,62.87
2023-04-10T18:31:18.988Z,64.85
2023-04-10T18:33:48.569Z,68.13
2023-04-10T18:36:24.056Z,70.42
2023-04-10T18:38:51.527Z,74.64
2023-04-10T18:41:18.005Z,77.75
2023-04-10T18:43:54.250Z,78.99
2023-04-10T18:46:32.119Z,77.67
2023-04-10T18:48:58.590Z,79.14
2023-04-10T18:51:26.408Z,82.00
2023-04-10T18:53:53.020Z,80.48
2023-04-10T18:56:19.611Z,79.90
2023-04-10T18:58:48.306Z,81.15
2023-04-10T19:01:17.509Z,83.25
2023-04-10T19:03:44.283Z,85.92
2023-04-10T19:06:10.939Z,87.63
2023-04-10T19:08:37.769Z,88.93
2023-04-10T19:11:05.875Z,89.68
2023-04-10T19:13:32.922Z,90.18
2023-04-10T19:16:03.056Z,90.16
2023-04-10T19:18:29.486Z,89.91
2023-04-10T19:20:55.868Z,92.09
2023-04-10T19:23:25.564Z,92.42
2023-04-10T19:25:53.312Z,92.54
2023-04-10T19:28:19.722Z,93.95
2023-04-10T19:30:46.158Z,94.36
2023-04-10T19:33:12.585Z,95.36
2023-04-10T19:35:39.027Z,97.24
2023-04-10T19:38:05.425Z,98.56
2023-04-10T19:40:32.117Z,100.00
2023-04-10T19:43:01.897Z,100.00
2023-04-10T19:45:29.351Z,100.00
2023-04-10T19:47:56.601Z,100.00
2023-04-10T19:50:23.141Z,100.00
2023-04-10T19:52:49.668Z,100.00
2023-04-10T19:55:18.694Z,100.00
2023-04-10T19:57:45.482Z,100.00
2023-04-10T20:00:12.571Z,100.00
2023-04-10T20:02:39.339Z,100.00
2023-04-10T20:05:06.302Z,100.00
2023-04-10T20:07:32.750Z,100.00
2023-04-10T20:10:02.456Z,100.00
2023-04-10T20:12:30.285Z,100.00
2023-04-10T20:14:56.750Z,100.00
2023-04-10T20:17:23.202Z,100.00
2023-04-10T20:19:49.649Z,100.00
2023-04-10T20:22:16.131Z,100.00
2023-04-10T20:24:42.560Z,100.00
2023-04-10T20:27:08.925Z,100.00
2023-04-10T20:29:35.294Z,100.00
2023-04-10T20:32:01.819Z,100.00
2023-04-10T20:34:28.282Z,100.00
2023-04-10T20:36:54.724Z,100.00
2023-04-10T20:39:22.551Z,100.00
2023-04-10T20:41:48.949Z,100.00
2023-04-10T20:44:15.381Z,100.00
2023-04-10T20:46:41.820Z,100.00
2023-04-10T20:49:10.174Z,100.00
2023-04-10T20:51:38.326Z,100.00
2023-04-10T20:54:06.358Z,100.00
2023-04-10T20:56:40.556Z,100.00
2023-04-10T20:59:09.989Z,100.00
2023-04-10T21:01:36.508Z,100.00
2023-04-10T21:04:02.990Z,100.00
2023-04-10T21:06:29.682Z,100.00
2023-04-10T21:08:56.213Z,100.00
2023-04-10T21:11:22.729Z,100.00
2023-04-10T21:13:49.322Z,100.00
2023-04-10T21:16:15.838Z,100.00
2023-04-10T21:18:42.312Z,100.00
2023-04-10T21:21:08.915Z,100.00
2023-04-10T21:23:35.307Z,100.00
2023-04-10T21:26:01.801Z,100.00
2023-04-10T21:28:28.206Z,100.00
2023-04-10T21:30:54.657Z,100.00
2023-04-10T21:33:21.041Z,100.00
2023-04-10T21:35:47.668Z,100.00
2023-04-10T21:38:14.396Z,100.00
2023-04-10T21:40:40.827Z,100.00
2023-04-10T21:43:07.198Z,100.00
2023-04-10T21:45:34.732Z,100.00
2023-04-10T21:48:01.513Z,100.00
2023-04-10T21:50:27.978Z,100.00
2023-04-10T21:52:54.424Z,100.00
2023-04-10T21:55:20.886Z,100.00
2023-04-10T21:57:47.271Z,100.00
2023-04-10T22:00:14.140Z,100.00
2023-04-10T22:02:41.681Z,100.00
2023-04-10T22:05:08.219Z,100.00
2023-04-10T22:07:34.589Z,100.00
2023-04-10T22:10:00.995Z,100.00
2023-04-10T22:12:27.422Z,100.00
2023-04-10T22:14:53.798Z,100.00
2023-04-10T22:17:20.234Z,100.00
2023-04-10T22:19:46.639Z,100.00
2023-04-10T22:22:13.047Z,100.00
2023-04-10T22:24:39.427Z,100.00
2023-04-10T22:27:05.788Z,100.00
2023-04-10T22:29:33.765Z,100.00
2023-04-10T22:32:00.230Z,100.00
2023-04-10T22:34:26.631Z,100.00
2023-04-10T22:36:53.036Z,100.00
2023-04-10T22:39:19.514Z,100.00
2023-04-10T22:41:46.086Z,100.00
2023-04-10T22:44:12.487Z,100.00
2023-04-10T22:46:38.921Z,100.00
2023-04-10T22:49:05.328Z,100.00
2023-04-10T22:51:32.003Z,100.00
2023-04-10T22:53:58.399Z,100.00
2023-04-10T22:56:26.557Z,100.00
2023-04-10T22:58:53.341Z,100.00
2023-04-10T23:01:20.180Z,100.00
2023-04-10T23:03:46.833Z,100.00
2023-04-10T23:06:13.221Z,100.00
2023-04-10T23:08:39.633Z,100.00
2023-04-10T23:11:06.312Z,100.00
2023-04-10T23:13:32.711Z,100.00
2023-04-10T23:15:59.106Z,100.00
2023-04-10T23:18:25.530Z,100.00
2023-04-10T23:20:51.924Z,100.00
2023-04-10T23:23:18.353Z,100.00
2023-04-10T23:25:44.740Z,100.00
2023-04-10T23:28:11.140Z,100.00
2023-04-10T23:30:37.543Z,100.00
2023-04-10T23:33:04.043Z,100.00
2023-04-10T23:35:30.496Z,100.00
2023-04-10T23:37:57.637Z,100.00
2023-04-10T23:40:24.053Z,100.00
2023-04-10T23:42:50.434Z,100.00
2023-04-10T23:45:16.923Z,100.00
2023-04-10T23:47:43.350Z,100.00
2023-04-10T23:50:10.333Z,100.00
2023-04-10T23:52:36.712Z,100.00
2023-04-10T23:55:03.260Z,100.00
2023-04-10T23:57:29.616Z,100.00
2023-04-10T23:59:56.045Z,100.00
